CheckWX is a tool to help pilots better visualize weather data.  It is not intended as a substitute for an official pre-flight weather briefing.

16:01:44 UTC

KCLL TAF
Easterwood Field Airport
College Station, Texas, USA
KCLL 181122Z 1812/1912 VRB02KT P6SM SKC FM181600 08007KT P6SM SCT180 FM190200 VRB02KT P6SM BKN250

Mar-18@
12:00 UTC

Mar-18 @ 12:00 UTC

Mar-18@
16:00 UTC

Mar-18 @ 16:00 UTC

KCLL 181122Z 1812/1912 VRB02KT P6SM SKC

Expired

Wind
  • Variable at 2 KTS
Cloud Levels
  • Clear skies

Mar-18@
16:00 UTC

Mar-18 @ 16:00 UTC

Mar-19@
02:00 UTC

Mar-19 @ 02:00 UTC

FM181600 08007KT P6SM SCT180

From

From Standard forecast or significant change

Wind
  • 080° at 7 KTS
Cloud Levels
  • Scattered at 18,000' AGL

Mar-19@
02:00 UTC

Mar-19 @ 02:00 UTC

Mar-19@
12:00 UTC

Mar-19 @ 12:00 UTC

FM190200 VRB02KT P6SM BKN250

From

From Standard forecast or significant change

Wind
  • Variable at 2 KTS
Cloud Levels
  • Broken at 25,000' AGL